createdAt,value
2017-03-02T00:00:03.653Z,996.4
2017-03-02T00:01:03.592Z,996.38
2017-03-02T00:02:03.529Z,996.37
2017-03-02T00:03:03.467Z,996.37
2017-03-02T00:04:03.408Z,996.34
2017-03-02T00:05:03.343Z,996.32
2017-03-02T00:06:03.282Z,996.25
2017-03-02T00:07:03.219Z,996.25
2017-03-02T00:08:03.157Z,996.25
2017-03-02T00:09:03.096Z,996.3
2017-03-02T00:10:03.033Z,996.28
2017-03-02T00:11:02.971Z,996.31
2017-03-02T00:12:02.909Z,996.28
2017-03-02T00:13:02.846Z,996.32
2017-03-02T00:14:02.784Z,996.3
2017-03-02T00:15:02.721Z,996.27
2017-03-02T00:16:02.658Z,996.26
2017-03-02T00:17:02.598Z,996.23
2017-03-02T00:18:02.535Z,996.23
2017-03-02T00:19:02.474Z,996.2
2017-03-02T00:20:02.423Z,996.17
2017-03-02T00:21:02.349Z,996.12
2017-03-02T00:22:02.287Z,996.13
2017-03-02T00:23:02.229Z,996.12
2017-03-02T00:24:02.164Z,996.12
2017-03-02T00:25:02.102Z,996.12
2017-03-02T00:26:02.040Z,996.18
2017-03-02T00:27:01.977Z,996.14
2017-03-02T00:28:01.916Z,996.12
2017-03-02T00:29:01.854Z,996.11
2017-03-02T00:30:01.792Z,996.08
2017-03-02T00:31:01.728Z,996.05
2017-03-02T00:32:01.667Z,996.07
2017-03-02T00:33:01.608Z,996.03
2017-03-02T00:34:01.546Z,995.96
2017-03-02T00:35:01.480Z,995.96
2017-03-02T00:36:01.419Z,995.92
2017-03-02T00:37:01.356Z,995.91
2017-03-02T00:38:01.293Z,995.87
2017-03-02T00:39:01.232Z,995.85
2017-03-02T00:40:01.171Z,995.87
2017-03-02T00:41:01.108Z,995.81
2017-03-02T00:42:01.045Z,995.81
2017-03-02T00:43:00.983Z,995.8
2017-03-02T00:44:00.921Z,995.79
2017-03-02T00:45:00.859Z,995.77
2017-03-02T00:46:00.797Z,995.77
2017-03-02T00:47:00.735Z,995.8
2017-03-02T00:48:00.674Z,995.77
2017-03-02T00:49:00.636Z,995.81
2017-03-02T00:50:00.549Z,995.8
2017-03-02T00:51:00.486Z,995.77
2017-03-02T00:52:00.424Z,995.77
2017-03-02T00:53:00.362Z,995.74
2017-03-02T00:54:00.299Z,995.76
2017-03-02T00:55:00.238Z,995.72
2017-03-02T00:56:00.175Z,995.68
2017-03-02T00:57:00.113Z,995.67
2017-03-02T00:58:00.051Z,995.69
2017-03-02T00:58:59.990Z,995.62
2017-03-02T00:59:59.926Z,995.6
2017-03-02T01:01:17.339Z,995.56
2017-03-02T01:02:11.005Z,995.56
2017-03-02T01:03:10.943Z,995.52
2017-03-02T01:04:10.878Z,995.5
2017-03-02T01:05:10.818Z,995.48
2017-03-02T01:06:10.758Z,995.47
2017-03-02T01:07:10.692Z,995.46
2017-03-02T01:08:10.633Z,995.45
2017-03-02T01:09:10.571Z,995.42
2017-03-02T01:10:10.509Z,995.38
2017-03-02T01:11:10.452Z,995.37
2017-03-02T01:12:10.384Z,995.37
2017-03-02T01:13:10.322Z,995.36
2017-03-02T01:14:10.261Z,995.37
2017-03-02T01:15:10.200Z,995.32
2017-03-02T01:16:10.134Z,995.32
2017-03-02T01:17:10.079Z,995.29
2017-03-02T01:18:10.019Z,995.3
2017-03-02T01:19:09.950Z,995.27
2017-03-02T01:20:09.888Z,995.26
2017-03-02T01:21:09.836Z,995.22
2017-03-02T01:22:09.766Z,995.21
2017-03-02T01:23:09.702Z,995.16
2017-03-02T01:24:09.639Z,995.15
2017-03-02T01:25:09.579Z,995.11
2017-03-02T01:26:09.512Z,995.14
2017-03-02T01:27:09.456Z,995.1
2017-03-02T01:28:09.391Z,995.11
2017-03-02T01:29:09.329Z,995.05
2017-03-02T01:30:09.272Z,995.06
2017-03-02T01:31:09.205Z,995.04
2017-03-02T01:32:09.142Z,995.05
2017-03-02T01:33:09.080Z,995.01
2017-03-02T01:34:09.018Z,995.05
2017-03-02T01:35:08.955Z,995.02
2017-03-02T01:36:08.944Z,995.03
2017-03-02T01:37:08.831Z,995.01
2017-03-02T01:38:08.776Z,994.97
2017-03-02T01:39:08.709Z,994.97
2017-03-02T01:40:08.647Z,994.94
2017-03-02T01:41:08.594Z,994.88
2017-03-02T01:42:08.522Z,994.88
2017-03-02T01:43:08.461Z,994.84
2017-03-02T01:44:08.399Z,994.82
2017-03-02T01:45:08.333Z,994.78
2017-03-02T01:46:08.274Z,994.76
2017-03-02T01:47:08.212Z,994.73
2017-03-02T01:48:08.149Z,994.7
2017-03-02T01:49:08.086Z,994.69
2017-03-02T01:50:08.037Z,994.67
2017-03-02T01:51:07.961Z,994.63
2017-03-02T01:52:07.898Z,994.63
2017-03-02T01:53:07.848Z,994.63
2017-03-02T01:54:07.775Z,994.59
2017-03-02T01:55:07.714Z,994.62
2017-03-02T01:56:07.652Z,994.6
2017-03-02T01:57:07.591Z,994.57
2017-03-02T01:58:07.529Z,994.57
2017-03-02T01:59:07.463Z,994.52
2017-03-02T02:00:07.404Z,994.54
2017-03-02T02:01:07.340Z,994.56
2017-03-02T02:02:07.281Z,994.55
2017-03-02T02:03:07.218Z,994.56
2017-03-02T02:04:07.151Z,994.54
2017-03-02T02:05:07.093Z,994.53
2017-03-02T02:06:07.032Z,994.55
2017-03-02T02:07:06.965Z,994.55
2017-03-02T02:08:06.907Z,994.5
2017-03-02T02:09:06.846Z,994.54
2017-03-02T02:10:06.783Z,994.5
2017-03-02T02:11:06.730Z,994.51
2017-03-02T02:12:06.667Z,994.48
2017-03-02T02:13:06.600Z,994.47
2017-03-02T02:14:06.535Z,994.43
2017-03-02T02:15:06.471Z,994.39
2017-03-02T02:16:06.408Z,994.38
2017-03-02T02:17:06.349Z,994.37
2017-03-02T02:18:06.286Z,994.38
2017-03-02T02:19:06.223Z,994.32
2017-03-02T02:20:06.160Z,994.26
2017-03-02T02:21:06.098Z,994.28
2017-03-02T02:22:06.039Z,994.26
2017-03-02T02:23:05.976Z,994.25
2017-03-02T02:24:05.913Z,994.25
2017-03-02T02:25:05.852Z,994.21
2017-03-02T02:26:05.790Z,994.22
2017-03-02T02:27:05.730Z,994.22
2017-03-02T02:28:05.679Z,994.2
2017-03-02T02:29:05.604Z,994.17
2017-03-02T02:30:05.542Z,994.14
2017-03-02T02:31:05.481Z,994.11
2017-03-02T02:32:05.417Z,994.09
2017-03-02T02:33:05.355Z,994.07
2017-03-02T02:34:05.301Z,994.07
2017-03-02T02:35:05.232Z,994.03
2017-03-02T02:36:05.182Z,994.02
2017-03-02T02:37:05.116Z,993.98
2017-03-02T02:38:05.045Z,993.99
2017-03-02T02:39:04.984Z,993.98
2017-03-02T02:40:04.921Z,993.93
2017-03-02T02:41:04.859Z,993.94
2017-03-02T02:42:04.807Z,993.94
2017-03-02T02:43:04.735Z,993.94
2017-03-02T02:44:04.671Z,993.95
2017-03-02T02:45:04.612Z,993.96
2017-03-02T02:46:04.546Z,993.92
2017-03-02T02:47:04.492Z,993.95
2017-03-02T02:48:04.425Z,993.95
2017-03-02T02:49:04.363Z,993.9
2017-03-02T02:50:04.302Z,993.92
2017-03-02T02:51:04.236Z,993.89
2017-03-02T02:52:04.177Z,993.92
2017-03-02T02:53:04.115Z,993.91
2017-03-02T02:54:04.057Z,993.87
2017-03-02T02:55:03.988Z,993.91
2017-03-02T02:56:03.934Z,993.87
2017-03-02T02:57:03.867Z,993.87
2017-03-02T02:58:03.804Z,993.86
2017-03-02T02:59:03.742Z,993.79
2017-03-02T03:00:03.680Z,993.73
2017-03-02T03:01:03.615Z,993.71
2017-03-02T03:02:03.553Z,993.7
2017-03-02T03:03:03.494Z,993.65
2017-03-02T03:04:03.429Z,993.6
2017-03-02T03:05:03.370Z,993.61
2017-03-02T03:06:03.307Z,993.56
2017-03-02T03:07:03.243Z,993.57
2017-03-02T03:08:03.182Z,993.59
2017-03-02T03:09:03.121Z,993.53
2017-03-02T03:10:03.067Z,993.53
2017-03-02T03:11:02.997Z,993.51
2017-03-02T03:12:02.943Z,993.44
2017-03-02T03:13:02.873Z,993.39
2017-03-02T03:14:02.811Z,993.34
2017-03-02T03:15:02.747Z,993.31
2017-03-02T03:16:02.684Z,993.27
2017-03-02T03:17:02.625Z,993.23
2017-03-02T03:18:02.563Z,993.21
2017-03-02T03:19:02.500Z,993.22
2017-03-02T03:20:02.435Z,993.22
2017-03-02T03:21:02.375Z,993.16
2017-03-02T03:22:02.314Z,993.19
2017-03-02T03:23:02.249Z,993.14
2017-03-02T03:24:02.189Z,993.14
2017-03-02T03:25:02.127Z,993.11
2017-03-02T03:26:02.063Z,993.09
2017-03-02T03:27:02.001Z,993.14
2017-03-02T03:28:01.940Z,993.1
2017-03-02T03:29:01.880Z,993.05
2017-03-02T03:30:01.816Z,993.02
2017-03-02T03:31:01.755Z,992.99
2017-03-02T03:32:01.691Z,992.99
2017-03-02T03:33:01.632Z,992.98
2017-03-02T03:34:01.585Z,992.96
2017-03-02T03:35:01.506Z,992.96
2017-03-02T03:36:01.442Z,992.92
2017-03-02T03:37:01.383Z,992.94
2017-03-02T03:38:01.320Z,992.95
2017-03-02T03:39:01.258Z,992.91
2017-03-02T03:40:01.199Z,992.88
2017-03-02T03:41:01.130Z,992.89
2017-03-02T03:42:01.071Z,992.86
2017-03-02T03:43:01.017Z,992.87
2017-03-02T03:44:00.951Z,992.78
2017-03-02T03:45:00.883Z,992.77
2017-03-02T03:46:00.821Z,992.79
2017-03-02T03:47:00.759Z,992.75
2017-03-02T03:48:00.700Z,992.76
2017-03-02T03:49:00.637Z,992.7
2017-03-02T03:50:00.575Z,992.65
2017-03-02T03:51:00.510Z,992.67
2017-03-02T03:52:00.448Z,992.66
2017-03-02T03:53:00.400Z,992.6
2017-03-02T03:54:00.323Z,992.58
2017-03-02T03:55:00.264Z,992.55
2017-03-02T03:56:00.199Z,992.48
2017-03-02T03:57:00.139Z,992.47
2017-03-02T03:58:00.078Z,992.49
2017-03-02T03:59:00.012Z,992.43
2017-03-02T03:59:59.953Z,992.42
2017-03-02T04:00:59.889Z,992.41
2017-03-02T04:01:59.863Z,992.35
2017-03-02T04:02:59.772Z,992.31
2017-03-02T04:03:59.704Z,992.29
2017-03-02T04:04:59.803Z,992.24
2017-03-02T04:05:59.582Z,992.25
2017-03-02T04:06:59.518Z,992.23
2017-03-02T04:07:59.456Z,992.3
2017-03-02T04:08:59.394Z,992.23
2017-03-02T04:09:59.330Z,992.23
2017-03-02T04:10:59.270Z,992.2
2017-03-02T04:11:59.206Z,992.19
2017-03-02T04:12:59.153Z,992.18
2017-03-02T04:13:59.091Z,992.21
2017-03-02T04:14:59.038Z,992.12
2017-03-02T04:15:58.961Z,992.15
2017-03-02T04:16:58.907Z,992.16
2017-03-02T04:17:58.835Z,992.12
2017-03-02T04:18:58.770Z,992.16
2017-03-02T04:19:58.713Z,992.16
2017-03-02T04:20:58.648Z,992.11
2017-03-02T04:21:58.585Z,992.11
2017-03-02T04:22:58.526Z,992.08
2017-03-02T04:23:58.470Z,992.06
2017-03-02T04:24:58.399Z,992.03
2017-03-02T04:25:58.336Z,991.98
2017-03-02T04:26:58.273Z,992.02
2017-03-02T04:27:58.210Z,991.94
2017-03-02T04:28:58.152Z,991.95
2017-03-02T04:29:58.089Z,991.93
2017-03-02T04:30:58.034Z,991.94
2017-03-02T04:31:57.964Z,991.91
2017-03-02T04:32:57.902Z,991.87
2017-03-02T04:33:57.841Z,991.87
2017-03-02T04:34:57.784Z,991.89
2017-03-02T04:35:57.716Z,991.84
2017-03-02T04:36:57.651Z,991.86
2017-03-02T04:37:57.593Z,991.8
2017-03-02T04:38:57.526Z,991.79
2017-03-02T04:39:57.468Z,991.82
2017-03-02T04:40:57.404Z,991.8
2017-03-02T04:41:57.345Z,991.82
2017-03-02T04:42:57.280Z,991.77
2017-03-02T04:43:57.220Z,991.81
2017-03-02T04:44:57.157Z,991.82
2017-03-02T04:45:57.095Z,991.76
2017-03-02T04:46:57.032Z,991.75
2017-03-02T04:47:56.970Z,991.7
2017-03-02T04:48:56.908Z,991.68
2017-03-02T04:49:56.847Z,991.72
2017-03-02T04:50:56.783Z,991.68
2017-03-02T04:51:56.722Z,991.73
2017-03-02T04:52:56.665Z,991.74
2017-03-02T04:53:56.595Z,991.74
2017-03-02T04:54:56.541Z,991.7
2017-03-02T04:55:56.473Z,991.71
2017-03-02T04:56:56.412Z,991.72
2017-03-02T04:57:56.347Z,991.67
2017-03-02T04:58:56.287Z,991.66
2017-03-02T04:59:56.225Z,991.65
2017-03-02T05:00:56.163Z,991.64
2017-03-02T05:01:56.098Z,991.81
2017-03-02T05:02:56.038Z,991.89
2017-03-02T05:03:55.975Z,991.58
2017-03-02T05:04:55.915Z,991.59
2017-03-02T05:05:55.852Z,991.72
2017-03-02T05:06:55.791Z,991.68
2017-03-02T05:07:55.729Z,991.72
2017-03-02T05:08:55.665Z,991.74
2017-03-02T05:09:55.604Z,991.68
2017-03-02T05:10:55.540Z,991.63
2017-03-02T05:11:55.481Z,991.6
2017-03-02T05:12:55.417Z,991.49
2017-03-02T05:13:55.356Z,991.52
2017-03-02T05:14:55.295Z,991.57
2017-03-02T05:15:55.230Z,991.65
2017-03-02T05:16:55.169Z,991.66
2017-03-02T05:17:55.105Z,991.7
2017-03-02T05:18:55.046Z,991.69
2017-03-02T05:19:54.983Z,991.77
2017-03-02T05:20:54.918Z,991.69
2017-03-02T05:21:54.859Z,991.54
2017-03-02T05:22:55.002Z,991.6
2017-03-02T05:23:54.734Z,991.69
2017-03-02T05:24:54.672Z,991.57
2017-03-02T05:25:54.609Z,991.54
2017-03-02T05:26:54.545Z,991.51
2017-03-02T05:27:54.483Z,991.46
2017-03-02T05:28:54.421Z,991.51
2017-03-02T05:29:54.362Z,991.43
2017-03-02T05:30:54.297Z,991.4
2017-03-02T05:31:54.237Z,991.37
2017-03-02T05:32:54.173Z,991.43
2017-03-02T05:33:54.111Z,991.4
2017-03-02T05:34:54.048Z,991.41
2017-03-02T05:35:53.986Z,991.35
2017-03-02T05:36:53.924Z,991.29
2017-03-02T05:37:53.863Z,991.26
2017-03-02T05:38:53.803Z,991.3
2017-03-02T05:39:53.740Z,991.28
2017-03-02T05:40:53.678Z,991.23
2017-03-02T05:41:53.614Z,991.3
2017-03-02T05:42:53.553Z,991.26
2017-03-02T05:43:53.492Z,991.2
2017-03-02T05:44:53.429Z,991.22
2017-03-02T05:45:53.367Z,991.21
2017-03-02T05:46:53.307Z,991.19
2017-03-02T05:47:53.244Z,991.19
2017-03-02T05:48:53.181Z,991.18
2017-03-02T05:49:53.119Z,991.2
2017-03-02T05:50:53.056Z,991.17
2017-03-02T05:51:52.997Z,991.18
2017-03-02T05:52:52.932Z,991.15
2017-03-02T05:53:52.870Z,991.18
2017-03-02T05:54:52.807Z,991.17
2017-03-02T05:55:52.747Z,991.17
2017-03-02T05:56:52.683Z,991.22
2017-03-02T05:57:52.623Z,991.19
2017-03-02T05:58:52.559Z,991.2
2017-03-02T05:59:52.502Z,991.21
2017-03-02T06:00:52.435Z,991.2
2017-03-02T06:01:59.450Z,991.21
2017-03-02T06:02:52.323Z,991.19
2017-03-02T06:03:52.249Z,991.17
2017-03-02T06:04:52.187Z,991.15
2017-03-02T06:05:52.125Z,991.2
2017-03-02T06:06:52.071Z,991.25
2017-03-02T06:07:52.001Z,991.26
2017-03-02T06:08:51.939Z,991.22
2017-03-02T06:09:51.874Z,991.23
2017-03-02T06:10:51.814Z,991.21
2017-03-02T06:11:51.753Z,991.2
2017-03-02T06:12:51.688Z,991.21
2017-03-02T06:13:51.628Z,991.22
2017-03-02T06:14:51.562Z,991.25
2017-03-02T06:15:51.504Z,991.24
2017-03-02T06:16:51.442Z,991.24
2017-03-02T06:17:51.381Z,991.26
2017-03-02T06:18:51.315Z,991.26
2017-03-02T06:19:51.252Z,991.29
2017-03-02T06:20:51.192Z,991.2
2017-03-02T06:21:51.133Z,991.26
2017-03-02T06:22:51.068Z,991.27
2017-03-02T06:23:51.007Z,991.27
2017-03-02T06:24:50.948Z,991.3
2017-03-02T06:25:50.883Z,991.27
2017-03-02T06:26:50.822Z,991.26
2017-03-02T06:27:50.755Z,991.25
2017-03-02T06:28:50.696Z,991.31
2017-03-02T06:29:50.631Z,991.29
2017-03-02T06:30:50.571Z,991.24
2017-03-02T06:31:50.510Z,991.23
2017-03-02T06:32:50.445Z,991.24
2017-03-02T06:33:50.384Z,991.23
2017-03-02T06:34:50.321Z,991.26
2017-03-02T06:35:50.257Z,991.27
2017-03-02T06:36:50.197Z,991.25
2017-03-02T06:37:50.136Z,991.27
2017-03-02T06:38:50.074Z,991.22
2017-03-02T06:39:50.016Z,991.22
2017-03-02T06:40:49.956Z,991.25
2017-03-02T06:41:49.886Z,991.21
2017-03-02T06:42:49.823Z,991.22
2017-03-02T06:43:49.759Z,991.24
2017-03-02T06:44:49.699Z,991.27
2017-03-02T06:45:49.638Z,991.36
2017-03-02T06:46:49.576Z,991.37
2017-03-02T06:47:49.513Z,991.4
2017-03-02T06:48:49.450Z,991.41
2017-03-02T06:49:49.387Z,991.41
2017-03-02T06:50:49.325Z,991.45
2017-03-02T06:51:49.263Z,991.47
2017-03-02T06:52:49.203Z,991.45
2017-03-02T06:53:49.142Z,991.47
2017-03-02T06:54:49.078Z,991.45
2017-03-02T06:55:49.017Z,991.51
2017-03-02T06:56:48.955Z,991.52
2017-03-02T06:57:48.890Z,991.6
2017-03-02T06:58:48.831Z,991.64
2017-03-02T06:59:48.768Z,991.64
2017-03-02T07:00:48.762Z,991.67
2017-03-02T07:01:48.643Z,991.69
2017-03-02T07:02:48.580Z,991.64
2017-03-02T07:03:48.519Z,991.66
2017-03-02T07:04:48.457Z,991.63
2017-03-02T07:05:48.391Z,991.66
2017-03-02T07:06:48.332Z,991.71
2017-03-02T07:07:48.267Z,991.71
2017-03-02T07:08:48.208Z,991.72
2017-03-02T07:09:48.145Z,991.75
2017-03-02T07:10:48.080Z,991.75
2017-03-02T07:11:48.020Z,991.74
2017-03-02T07:12:47.956Z,991.7
2017-03-02T07:13:47.899Z,991.68
2017-03-02T07:14:47.832Z,991.67
2017-03-02T07:15:47.774Z,991.65
2017-03-02T07:16:47.708Z,991.63
2017-03-02T07:17:47.648Z,991.61
2017-03-02T07:18:47.585Z,991.56
2017-03-02T07:19:47.521Z,991.56
2017-03-02T07:20:47.458Z,991.62
2017-03-02T07:21:47.396Z,991.61
2017-03-02T07:22:47.340Z,991.61
2017-03-02T07:23:47.275Z,991.64
2017-03-02T07:24:47.218Z,991.64
2017-03-02T07:25:47.150Z,991.67
2017-03-02T07:26:47.089Z,991.7
2017-03-02T07:27:47.032Z,991.7
2017-03-02T07:28:46.967Z,991.69
2017-03-02T07:29:46.905Z,991.66
2017-03-02T07:30:46.837Z,991.71
2017-03-02T07:31:46.774Z,991.74
2017-03-02T07:32:46.723Z,991.71
2017-03-02T07:33:46.650Z,991.69
2017-03-02T07:34:46.602Z,991.72
2017-03-02T07:35:46.529Z,991.71
2017-03-02T07:36:46.467Z,991.74
2017-03-02T07:37:46.406Z,991.77
2017-03-02T07:38:46.386Z,991.77
2017-03-02T07:39:46.281Z,991.75
2017-03-02T07:40:46.218Z,991.77
2017-03-02T07:41:46.157Z,991.77
2017-03-02T07:42:46.094Z,991.82
2017-03-02T07:43:46.031Z,991.8
2017-03-02T07:44:45.971Z,991.8
2017-03-02T07:45:45.906Z,991.84
2017-03-02T07:46:45.842Z,991.81
2017-03-02T07:47:45.783Z,991.9
2017-03-02T07:48:45.716Z,991.92
2017-03-02T07:49:45.659Z,991.85
2017-03-02T07:50:45.601Z,991.85
2017-03-02T07:51:45.534Z,991.85
2017-03-02T07:52:45.474Z,991.84
2017-03-02T07:53:45.414Z,991.89
2017-03-02T07:54:45.344Z,991.87
2017-03-02T07:55:45.283Z,991.92
2017-03-02T07:56:45.221Z,991.93
2017-03-02T07:57:45.156Z,991.96
2017-03-02T07:58:45.095Z,991.88
2017-03-02T07:59:45.033Z,991.89
2017-03-02T08:00:45.036Z,991.96
2017-03-02T08:01:44.911Z,991.97
2017-03-02T08:02:44.848Z,992.03
2017-03-02T08:03:44.787Z,992.05
2017-03-02T08:04:44.725Z,992.02
2017-03-02T08:05:44.662Z,992.03
2017-03-02T08:06:44.601Z,992.06
2017-03-02T08:07:44.538Z,992.13
2017-03-02T08:08:44.476Z,992.16
2017-03-02T08:09:44.411Z,992.28
2017-03-02T08:10:44.354Z,992.22
2017-03-02T08:11:44.299Z,992.36
2017-03-02T08:12:44.225Z,992.38
2017-03-02T08:13:44.165Z,992.37
2017-03-02T08:14:44.111Z,992.19
2017-03-02T08:15:44.040Z,992.38
2017-03-02T08:16:43.982Z,992.28
2017-03-02T08:17:43.916Z,992.45
2017-03-02T08:18:43.854Z,992.39
2017-03-02T08:19:43.792Z,992.53
2017-03-02T08:20:43.729Z,992.48
2017-03-02T08:21:43.668Z,992.55
2017-03-02T08:22:43.607Z,992.63
2017-03-02T08:23:43.547Z,992.6
2017-03-02T08:24:43.479Z,992.8
2017-03-02T08:25:43.430Z,992.64
2017-03-02T08:26:43.359Z,992.74
2017-03-02T08:27:43.296Z,992.71
2017-03-02T08:28:43.231Z,992.79
2017-03-02T08:29:43.170Z,992.8
2017-03-02T08:30:43.105Z,992.89
2017-03-02T08:31:43.047Z,993.01
2017-03-02T08:32:42.982Z,993.17
2017-03-02T08:33:42.921Z,993.09
2017-03-02T08:34:42.859Z,993.09
2017-03-02T08:35:42.797Z,993.16
2017-03-02T08:36:42.735Z,993.2
2017-03-02T08:37:42.670Z,993.35
2017-03-02T08:38:42.608Z,993.43
2017-03-02T08:39:42.550Z,993.18
2017-03-02T08:40:42.485Z,993.18
2017-03-02T08:41:42.432Z,993.06
2017-03-02T08:42:42.362Z,993.02
2017-03-02T08:43:42.298Z,993.15
2017-03-02T08:44:42.238Z,993
2017-03-02T08:45:42.176Z,993.03
2017-03-02T08:46:42.115Z,993.08
2017-03-02T08:47:42.050Z,993.05
2017-03-02T08:48:41.990Z,993.12
2017-03-02T08:49:41.928Z,993.14
2017-03-02T08:50:41.866Z,993.2
2017-03-02T08:51:41.800Z,993.17
2017-03-02T08:52:41.741Z,993.26
2017-03-02T08:53:41.677Z,993.24
2017-03-02T08:54:41.614Z,993.15
2017-03-02T08:55:41.853Z,993.23
2017-03-02T08:56:41.490Z,993.13
2017-03-02T08:57:41.445Z,993.29
2017-03-02T08:58:41.367Z,993.19
2017-03-02T08:59:41.312Z,993.28
2017-03-02T09:00:41.498Z,993.26
2017-03-02T09:01:41.182Z,993.29
2017-03-02T09:02:41.118Z,993.34
2017-03-02T09:03:41.060Z,993.26
2017-03-02T09:04:40.995Z,993.29
2017-03-02T09:05:40.931Z,993.25
2017-03-02T09:06:40.869Z,993.34
2017-03-02T09:07:40.809Z,993.35
2017-03-02T09:08:40.744Z,993.25
2017-03-02T09:09:40.684Z,993.25
2017-03-02T09:10:40.921Z,993.34
2017-03-02T09:11:40.561Z,993.23
2017-03-02T09:12:40.500Z,993.26
2017-03-02T09:13:40.437Z,993.17
2017-03-02T09:14:40.376Z,993.34
2017-03-02T09:15:40.560Z,993.36
2017-03-02T09:16:40.250Z,993.38
2017-03-02T09:17:40.187Z,993.36
2017-03-02T09:18:40.123Z,993.48
2017-03-02T09:19:40.064Z,993.49
2017-03-02T09:20:40.101Z,993.39
2017-03-02T09:21:39.940Z,993.34
2017-03-02T09:22:39.878Z,993.21
2017-03-02T09:23:39.817Z,993.19
2017-03-02T09:24:39.754Z,993.37
2017-03-02T09:25:39.941Z,993.46
2017-03-02T09:26:39.627Z,993.42
2017-03-02T09:27:39.566Z,993.41
2017-03-02T09:28:39.502Z,993.39
2017-03-02T09:29:39.442Z,993.34
2017-03-02T09:30:39.381Z,993.34
2017-03-02T09:31:39.318Z,993.4
2017-03-02T09:32:39.257Z,993.38
2017-03-02T09:33:39.195Z,993.45
2017-03-02T09:34:39.130Z,993.43
2017-03-02T09:35:39.073Z,993.41
2017-03-02T09:36:39.022Z,993.42
2017-03-02T09:37:38.946Z,993.41
2017-03-02T09:38:38.883Z,993.39
2017-03-02T09:39:38.823Z,993.47
2017-03-02T09:40:38.758Z,993.41
2017-03-02T09:41:38.699Z,993.46
2017-03-02T09:42:38.634Z,993.43
2017-03-02T09:43:38.574Z,993.45
2017-03-02T09:44:38.511Z,993.44
2017-03-02T09:45:38.448Z,993.47
2017-03-02T09:46:38.386Z,993.5
2017-03-02T09:47:38.324Z,993.51
2017-03-02T09:48:38.260Z,993.47
2017-03-02T09:49:38.200Z,993.49
2017-03-02T09:50:38.138Z,993.49
2017-03-02T09:51:38.075Z,993.44
